Time;durP1;ratioP1;P1;durP2;ratioP2;P2;SDS_P1;SDS_P2;PMS_P1;PMS_P2;Temp;Humidity;BMP_temperature;BMP_pressure;BME280_temperature;BME280_humidity;BME280_pressure;Samples;Min_cycle;Max_cycle;Signal;HPM_P1;HPM_P2
2022/08/28 00:01:24;;;;;;;2.63;1.00;;;22.90;97.10;;;;;;4935748;29;20215;-75
2022/08/28 00:03:50;;;;;;;2.73;1.00;;;22.90;97.10;;;;;;4952039;28;20624;-74
2022/08/28 00:06:15;;;;;;;4.27;0.87;;;22.80;97.10;;;;;;4953331;28;20620;-74
2022/08/28 00:08:41;;;;;;;2.70;1.10;;;22.80;97.00;;;;;;4953083;28;20183;-74
2022/08/28 00:11:07;;;;;;;3.00;0.87;;;22.80;97.00;;;;;;4952475;28;20164;-74
2022/08/28 00:13:33;;;;;;;1.97;0.80;;;22.80;97.10;;;;;;4953306;28;20568;-74
2022/08/28 00:15:59;;;;;;;2.57;0.60;;;22.70;97.00;;;;;;4953527;28;20181;-74
2022/08/28 00:18:27;;;;;;;4.77;0.80;;;22.70;97.10;;;;;;4937906;29;20205;-74
2022/08/28 00:20:54;;;;;;;3.40;0.83;;;22.70;97.10;;;;;;4941480;29;20589;-74
2022/08/28 00:23:20;;;;;;;4.10;1.30;;;22.70;97.10;;;;;;4933816;29;20647;-74
2022/08/28 00:25:46;;;;;;;4.10;0.90;;;22.70;97.10;;;;;;4934177;29;20694;-74
2022/08/28 00:28:13;;;;;;;2.40;1.00;;;22.70;97.10;;;;;;4934010;29;20668;-74
2022/08/28 00:30:51;;;;;;;3.10;1.00;;;22.70;97.10;;;;;;4932812;29;20576;-74
2022/08/28 00:33:26;;;;;;;3.30;1.13;;;22.60;97.00;;;;;;4933744;29;21051;-74
2022/08/28 00:35:53;;;;;;;2.10;0.80;;;22.60;97.10;;;;;;4934221;29;20668;-74
2022/08/28 00:38:20;;;;;;;3.03;0.90;;;22.60;97.00;;;;;;4933999;29;20580;-74
2022/08/28 00:40:49;;;;;;;3.13;1.03;;;22.60;97.10;;;;;;4932745;29;20629;-74
2022/08/28 00:43:25;;;;;;;4.73;0.87;;;22.60;97.10;;;;;;4933764;29;20649;-74
2022/08/28 00:45:51;;;;;;;4.50;0.90;;;22.60;97.20;;;;;;4933961;29;20565;-74
2022/08/28 00:48:17;;;;;;;2.57;0.80;;;22.60;97.20;;;;;;4932744;29;20572;-74
2022/08/28 00:53:28;;;;;;;4.10;1.03;;;22.60;97.20;;;;;;4933835;29;20576;-74
2022/08/28 00:55:54;;;;;;;2.87;0.77;;;22.60;97.20;;;;;;4916830;29;20577;-74
2022/08/28 00:58:20;;;;;;;3.50;1.20;;;22.60;97.20;;;;;;4933978;29;20577;-74
2022/08/28 01:00:46;;;;;;;4.13;0.90;;;22.60;97.20;;;;;;4933800;29;20177;-74
2022/08/28 01:03:12;;;;;;;3.53;1.13;;;22.60;97.20;;;;;;4932240;29;20216;-74
2022/08/28 01:05:38;;;;;;;2.60;1.00;;;22.60;97.30;;;;;;4916612;29;20241;-74
2022/08/28 01:08:04;;;;;;;2.67;0.80;;;22.60;97.20;;;;;;4916763;29;20247;-74
2022/08/28 01:10:33;;;;;;;3.43;0.80;;;22.50;97.10;;;;;;4933553;29;21427;-74
2022/08/28 01:12:59;;;;;;;2.23;0.73;;;22.50;97.10;;;;;;4916521;29;20248;-74
2022/08/28 01:15:30;;;;;;;3.07;1.50;;;22.50;97.10;;;;;;4933758;29;21110;-74
2022/08/28 01:18:00;;;;;;;2.77;1.13;;;22.50;97.30;;;;;;4933762;29;20603;-74
2022/08/28 01:20:31;;;;;;;1.97;0.80;;;22.50;97.10;;;;;;4933715;29;20589;-75
2022/08/28 01:23:02;;;;;;;4.00;0.90;;;22.50;97.10;;;;;;4936886;29;20667;-74
2022/08/28 01:25:32;;;;;;;1.50;0.60;;;22.50;97.10;;;;;;4920000;29;20577;-75
2022/08/28 01:27:59;;;;;;;4.03;1.20;;;22.40;97.10;;;;;;4937086;29;20951;-74
2022/08/28 01:30:25;;;;;;;2.87;0.80;;;22.40;97.10;;;;;;4936685;29;20976;-74
2022/08/28 01:32:53;;;;;;;2.83;1.30;;;22.40;97.20;;;;;;4936765;29;20691;-74
2022/08/28 01:35:24;;;;;;;2.60;0.83;;;22.40;97.20;;;;;;4936794;29;20573;-74
2022/08/28 01:37:51;;;;;;;4.73;1.30;;;22.40;97.10;;;;;;4936736;29;20577;-74
2022/08/28 01:40:29;;;;;;;4.33;1.00;;;22.40;97.10;;;;;;4919362;29;21066;-74
2022/08/28 01:42:55;;;;;;;3.50;1.00;;;22.30;97.10;;;;;;4919465;29;20624;-74
2022/08/28 01:45:22;;;;;;;3.20;0.90;;;22.30;97.10;;;;;;4936595;29;20943;-74
2022/08/28 01:47:48;;;;;;;4.60;1.07;;;22.30;97.10;;;;;;4919599;29;21209;-74
2022/08/28 01:50:18;;;;;;;2.60;0.90;;;22.30;97.10;;;;;;4936336;29;20675;-74
2022/08/28 01:52:44;;;;;;;3.47;1.03;;;22.30;97.10;;;;;;4936171;29;20982;-74
2022/08/28 01:55:10;;;;;;;2.60;0.70;;;22.30;97.10;;;;;;4936119;29;20625;-74
2022/08/28 01:57:45;;;;;;;3.60;0.80;;;22.30;97.10;;;;;;4935991;29;20679;-74
2022/08/28 02:00:12;;;;;;;3.37;0.90;;;22.20;97.00;;;;;;4936169;29;20677;-74
2022/08/28 02:02:39;;;;;;;2.90;1.00;;;22.20;97.00;;;;;;4936123;29;20676;-74
2022/08/28 02:05:06;;;;;;;4.93;0.70;;;22.20;97.00;;;;;;4936272;29;20566;-74
2022/08/28 02:07:31;;;;;;;5.03;0.80;;;22.20;97.00;;;;;;4903395;29;20581;-74
2022/08/28 02:09:57;;;;;;;2.50;0.80;;;22.10;96.90;;;;;;4935944;29;20577;-74
2022/08/28 02:12:24;;;;;;;2.83;0.80;;;22.10;96.90;;;;;;4935992;29;20201;-75
2022/08/28 02:14:49;;;;;;;2.80;0.80;;;22.10;96.90;;;;;;4935995;29;20598;-75
2022/08/28 02:17:15;;;;;;;4.17;0.97;;;22.00;96.90;;;;;;4936281;29;20589;-75
2022/08/28 02:19:41;;;;;;;3.70;0.90;;;22.00;96.90;;;;;;4936250;29;20202;-74
2022/08/28 02:22:08;;;;;;;2.80;0.70;;;22.00;97.10;;;;;;4935835;29;20660;-74
2022/08/28 02:24:34;;;;;;;2.00;0.83;;;22.00;96.90;;;;;;4935881;29;20188;-74
2022/08/28 02:27:01;;;;;;;3.17;0.70;;;21.90;96.90;;;;;;4936045;29;20565;-74
2022/08/28 02:29:27;;;;;;;2.90;0.80;;;21.90;97.00;;;;;;4935588;29;20605;-74
2022/08/28 02:31:54;;;;;;;2.20;0.70;;;21.90;97.00;;;;;;4935271;29;20612;-74
2022/08/28 02:34:20;;;;;;;3.10;1.00;;;21.90;97.00;;;;;;4935329;29;20671;-74
2022/08/28 02:36:46;;;;;;;3.07;1.13;;;21.80;97.00;;;;;;4935793;29;20624;-74
2022/08/28 02:39:12;;;;;;;2.17;0.90;;;21.80;97.00;;;;;;4918515;29;20181;-74
2022/08/28 02:41:38;;;;;;;2.70;0.80;;;21.80;97.10;;;;;;4935362;29;20592;-74
2022/08/28 02:44:03;;;;;;;2.40;0.77;;;21.70;97.10;;;;;;4934319;29;20308;-74
2022/08/28 02:46:29;;;;;;;2.20;0.90;;;21.80;97.20;;;;;;4935651;29;20681;-74
2022/08/28 02:48:55;;;;;;;4.33;1.00;;;21.70;97.20;;;;;;4935597;29;20176;-74
2022/08/28 02:51:21;;;;;;;1.83;0.80;;;21.70;97.20;;;;;;4935044;29;20683;-74
2022/08/28 02:53:49;;;;;;;3.53;1.37;;;21.70;97.20;;;;;;4935441;29;20177;-75
2022/08/28 02:56:15;;;;;;;2.83;0.70;;;21.70;97.30;;;;;;4935396;29;20577;-74
2022/08/28 02:58:41;;;;;;;3.87;1.10;;;21.70;97.40;;;;;;4935411;29;20602;-74
2022/08/28 03:01:10;;;;;;;2.60;0.70;;;21.60;97.40;;;;;;4934615;29;20587;-75
2022/08/28 03:03:36;;;;;;;1.80;0.80;;;21.70;97.40;;;;;;4935230;29;20659;-74
2022/08/28 03:06:02;;;;;;;3.57;0.70;;;21.60;97.40;;;;;;4935480;29;20612;-74
2022/08/28 03:08:31;;;;;;;2.63;0.70;;;21.60;97.50;;;;;;4935248;29;20553;-74
2022/08/28 03:10:57;;;;;;;3.27;1.00;;;21.60;97.50;;;;;;4934968;29;20560;-74
2022/08/28 03:13:24;;;;;;;2.40;0.87;;;21.60;97.50;;;;;;4934757;29;20596;-74
2022/08/28 03:15:50;;;;;;;3.20;0.93;;;21.60;97.60;;;;;;4935201;29;20565;-75
2022/08/28 03:18:17;;;;;;;2.90;0.97;;;21.60;97.50;;;;;;4935006;29;20937;-74
2022/08/28 03:20:44;;;;;;;3.60;0.80;;;21.50;97.60;;;;;;4917888;29;20564;-74
2022/08/28 03:23:26;;;;;;;2.13;0.80;;;21.50;97.60;;;;;;4934655;29;20633;-74
2022/08/28 03:26:04;;;;;;;4.50;1.10;;;21.50;97.50;;;;;;4934967;29;20665;-74
2022/08/28 03:28:33;;;;;;;2.60;1.03;;;21.50;97.50;;;;;;4934741;29;20595;-74
2022/08/28 03:30:59;;;;;;;1.90;0.90;;;21.50;97.50;;;;;;4934631;29;20908;-74
2022/08/28 03:33:26;;;;;;;3.30;1.00;;;21.50;97.50;;;;;;4934403;29;20628;-74
2022/08/28 03:35:52;;;;;;;2.47;0.97;;;21.40;97.50;;;;;;4934739;29;20565;-74
2022/08/28 03:38:18;;;;;;;3.00;0.97;;;21.40;97.50;;;;;;4934686;29;20668;-74
2022/08/28 03:40:45;;;;;;;3.60;1.00;;;21.40;97.50;;;;;;4934324;29;21061;-74
2022/08/28 03:43:13;;;;;;;2.67;1.00;;;21.30;97.50;;;;;;4917598;29;20632;-74
2022/08/28 03:45:39;;;;;;;3.93;1.10;;;21.30;97.50;;;;;;4935036;29;20601;-74
2022/08/28 03:48:07;;;;;;;3.40;1.00;;;21.30;97.60;;;;;;4934675;29;20935;-74
2022/08/28 03:50:33;;;;;;;5.50;1.80;;;21.20;97.60;;;;;;4917345;29;20588;-73
2022/08/28 03:52:59;;;;;;;3.63;1.40;;;21.20;97.60;;;;;;4933353;29;20621;-74
2022/08/28 03:55:25;;;;;;;3.30;1.27;;;21.10;97.50;;;;;;4934502;29;20573;-74
2022/08/28 03:57:51;;;;;;;6.20;1.43;;;21.10;97.60;;;;;;4917267;29;20603;-74
2022/08/28 04:00:19;;;;;;;3.33;1.03;;;21.10;97.70;;;;;;4934095;29;20208;-74
2022/08/28 04:02:45;;;;;;;8.30;1.60;;;21.00;97.60;;;;;;4933796;29;21194;-74
2022/08/28 04:05:11;;;;;;;3.83;1.40;;;21.00;97.70;;;;;;4934206;29;20576;-74
2022/08/28 04:07:38;;;;;;;6.97;1.90;;;21.00;97.70;;;;;;4934115;29;20652;-74
2022/08/28 04:10:05;;;;;;;2.93;1.17;;;20.90;97.60;;;;;;4916947;29;20606;-74
2022/08/28 04:12:30;;;;;;;3.50;1.40;;;20.90;97.70;;;;;;4916875;29;21166;-74
2022/08/28 04:14:56;;;;;;;3.93;1.40;;;20.80;97.70;;;;;;4916998;29;20587;-74
2022/08/28 04:17:22;;;;;;;5.90;1.30;;;20.80;97.70;;;;;;4917266;29;20229;-74
2022/08/28 04:19:52;;;;;;;3.43;1.50;;;20.70;97.70;;;;;;4933957;29;20240;-74
2022/08/28 04:22:17;;;;;;;6.67;1.60;;;20.60;97.70;;;;;;4901064;29;20604;-74
2022/08/28 04:24:43;;;;;;;3.17;1.10;;;20.60;97.80;;;;;;4934116;29;20561;-74
2022/08/28 04:27:09;;;;;;;3.53;1.23;;;20.60;97.90;;;;;;4934010;29;20173;-74
2022/08/28 04:29:35;;;;;;;3.87;1.50;;;20.50;97.80;;;;;;4916840;29;20173;-74
2022/08/28 04:32:01;;;;;;;2.60;1.27;;;20.50;97.90;;;;;;4932780;29;20205;-74
2022/08/28 04:34:27;;;;;;;3.50;1.77;;;20.50;98.10;;;;;;4917050;29;20592;-74
2022/08/28 04:36:53;;;;;;;3.23;1.30;;;20.40;98.00;;;;;;4933981;29;20579;-74
2022/08/28 04:39:19;;;;;;;7.03;2.13;;;20.40;98.10;;;;;;4916804;29;20583;-74
2022/08/28 04:41:45;;;;;;;8.33;2.27;;;20.40;98.20;;;;;;4933782;29;20635;-74
2022/08/28 04:44:11;;;;;;;4.87;1.97;;;20.30;98.10;;;;;;4916831;29;20679;-74
2022/08/28 04:46:37;;;;;;;5.87;3.00;;;20.30;98.20;;;;;;4933934;29;20573;-74
2022/08/28 04:49:03;;;;;;;6.83;2.30;;;20.30;98.20;;;;;;4934054;29;20176;-74
2022/08/28 04:51:30;;;;;;;6.00;1.93;;;20.20;98.30;;;;;;4933471;29;20595;-74
2022/08/28 04:53:57;;;;;;;4.60;1.80;;;20.20;98.40;;;;;;4933891;29;20628;-74
2022/08/28 04:56:23;;;;;;;6.70;1.93;;;20.20;98.40;;;;;;4935736;29;20576;-74
2022/08/28 04:58:49;;;;;;;3.83;1.70;;;20.20;98.50;;;;;;4904942;29;20628;-75
2022/08/28 05:01:22;;;;;;;4.53;1.90;;;20.10;98.50;;;;;;4937099;29;20573;-74
2022/08/28 05:03:52;;;;;;;6.90;2.57;;;20.10;98.60;;;;;;4937362;29;20215;-75
2022/08/28 05:06:20;;;;;;;4.87;1.60;;;20.10;98.70;;;;;;4904804;29;20620;-73
2022/08/28 05:08:46;;;;;;;6.40;1.77;;;20.10;98.70;;;;;;4937305;29;20920;-74
2022/08/28 05:11:18;;;;;;;6.30;1.47;;;20.10;98.80;;;;;;4919781;29;20628;-74
2022/08/28 05:13:44;;;;;;;3.97;2.30;;;20.10;98.90;;;;;;4920197;29;20568;-74
2022/08/28 05:16:10;;;;;;;7.13;2.67;;;20.10;98.90;;;;;;4937362;29;20573;-74
2022/08/28 05:18:37;;;;;;;4.07;1.40;;;20.10;99.00;;;;;;4935868;29;20623;-74
2022/08/28 05:21:03;;;;;;;3.83;1.50;;;20.10;98.90;;;;;;4936751;29;20573;-74
2022/08/28 05:23:29;;;;;;;5.90;1.70;;;20.10;99.00;;;;;;4936959;29;20617;-75
2022/08/28 05:25:55;;;;;;;7.17;2.27;;;20.10;99.00;;;;;;4904266;29;20573;-75
2022/08/28 05:28:23;;;;;;;7.70;2.30;;;20.20;99.10;;;;;;4936993;29;20576;-74
2022/08/28 05:30:49;;;;;;;6.80;2.23;;;20.20;99.20;;;;;;4936615;29;20569;-74
2022/08/28 05:33:15;;;;;;;5.20;2.00;;;20.20;99.20;;;;;;4936776;29;20612;-75
2022/08/28 05:35:45;;;;;;;4.80;2.03;;;20.20;99.20;;;;;;4936824;29;20177;-74
2022/08/28 05:38:12;;;;;;;6.63;2.30;;;20.20;99.20;;;;;;4936731;29;20580;-74
2022/08/28 05:40:47;;;;;;;8.30;2.83;;;20.20;99.20;;;;;;4919350;29;20576;-74
2022/08/28 05:43:15;;;;;;;6.30;1.90;;;20.20;99.30;;;;;;4935167;29;20655;-74
2022/08/28 05:45:41;;;;;;;4.83;2.27;;;20.30;99.30;;;;;;4936615;29;21280;-74
2022/08/28 05:48:08;;;;;;;5.33;2.70;;;20.30;99.30;;;;;;4936369;29;20598;-73
2022/08/28 05:50:38;;;;;;;6.77;2.70;;;20.30;99.40;;;;;;4918959;29;20592;-74
2022/08/28 05:53:04;;;;;;;8.03;2.67;;;20.30;99.40;;;;;;4918797;29;21214;-73
2022/08/28 05:55:30;;;;;;;9.80;3.80;;;20.30;99.40;;;;;;4918997;29;20581;-73
2022/08/28 05:58:27;;;;;;;7.10;2.73;;;20.40;99.50;;;;;;4935893;29;20944;-73
2022/08/28 06:00:42;;;;;;;8.90;2.70;;;20.30;99.40;;;;;;4934575;29;20592;-73
2022/08/28 06:03:08;;;;;;;9.10;2.97;;;20.40;99.50;;;;;;4935671;29;20650;-74
2022/08/28 06:05:34;;;;;;;6.67;2.50;;;20.50;99.60;;;;;;4919008;29;20177;-73
2022/08/28 06:08:00;;;;;;;5.73;2.23;;;20.50;99.60;;;;;;4935768;29;20577;-73
2022/08/28 06:10:27;;;;;;;5.97;2.40;;;20.50;99.60;;;;;;4932854;29;20181;-73
2022/08/28 06:12:54;;;;;;;5.27;2.90;;;20.60;99.60;;;;;;4902760;29;20613;-73
2022/08/28 06:15:19;;;;;;;3.63;2.30;;;20.60;99.50;;;;;;4919100;29;20581;-74
2022/08/28 06:17:47;;;;;;;8.30;2.60;;;20.70;99.60;;;;;;4936171;29;20576;-74
2022/08/28 06:20:13;;;;;;;5.80;2.13;;;20.70;99.60;;;;;;4935874;29;20240;-74
2022/08/28 06:22:38;;;;;;;5.97;2.57;;;20.80;99.60;;;;;;4935754;29;20723;-74
2022/08/28 06:25:06;;;;;;;5.83;2.90;;;20.90;99.60;;;;;;4936015;29;20169;-74
2022/08/28 06:27:35;;;;;;;5.03;2.47;;;21.00;99.50;;;;;;4935898;29;20173;-73
2022/08/28 06:30:02;;;;;;;5.27;2.03;;;21.00;99.40;;;;;;4918396;29;20565;-73
2022/08/28 06:32:28;;;;;;;6.17;1.90;;;21.10;99.40;;;;;;4935419;29;20607;-74
2022/08/28 06:34:54;;;;;;;5.67;2.67;;;21.20;99.30;;;;;;4932898;29;20593;-74
2022/08/28 06:37:20;;;;;;;8.47;2.13;;;21.30;99.40;;;;;;4917186;29;20173;-74
2022/08/28 06:39:45;;;;;;;8.50;2.90;;;21.30;99.20;;;;;;4916358;29;20176;-74
2022/08/28 06:42:11;;;;;;;8.87;3.00;;;21.40;99.20;;;;;;4935040;29;20288;-74
2022/08/28 06:44:38;;;;;;;5.83;2.43;;;21.40;99.10;;;;;;4917520;29;20181;-74
2022/08/28 06:47:04;;;;;;;6.40;2.50;;;21.50;99.10;;;;;;4935437;29;21217;-76
2022/08/28 06:49:29;;;;;;;5.47;2.53;;;21.60;99.00;;;;;;4901183;29;20585;-74
2022/08/28 06:51:55;;;;;;;5.07;2.40;;;21.60;98.90;;;;;;4939452;29;20629;-73
2022/08/28 06:54:21;;;;;;;5.37;2.70;;;21.70;98.80;;;;;;4932123;29;20244;-74
2022/08/28 06:56:48;;;;;;;6.80;2.43;;;21.80;98.70;;;;;;4938585;29;20185;-74
2022/08/28 06:59:13;;;;;;;4.87;2.00;;;21.80;98.60;;;;;;4946180;29;20577;-75
2022/08/28 07:01:39;;;;;;;8.10;2.23;;;21.90;98.70;;;;;;4939649;29;20719;-75
2022/08/28 07:04:08;;;;;;;5.20;2.20;;;22.00;98.70;;;;;;4935400;29;21223;-75
2022/08/28 07:06:36;;;;;;;5.13;1.43;;;22.20;98.60;;;;;;4935507;29;20195;-75
2022/08/28 07:09:05;;;;;;;6.03;1.77;;;22.30;98.50;;;;;;4935517;29;20905;-75
2022/08/28 07:11:32;;;;;;;4.43;1.80;;;22.40;98.40;;;;;;4934913;29;20605;-74
2022/08/28 07:13:59;;;;;;;4.83;1.37;;;22.50;98.20;;;;;;4926514;29;20581;-74
2022/08/28 07:16:31;;;;;;;4.90;2.17;;;22.60;98.10;;;;;;4924014;29;21125;-76
2022/08/28 07:18:57;;;;;;;4.53;1.77;;;22.70;98.00;;;;;;4934837;29;20592;-75
2022/08/28 07:21:24;;;;;;;5.07;1.97;;;22.80;97.90;;;;;;4934880;29;20600;-74
2022/08/28 07:23:50;;;;;;;5.27;1.90;;;22.90;97.90;;;;;;4917893;29;20672;-75
2022/08/28 07:26:21;;;;;;;6.70;2.03;;;23.10;97.90;;;;;;4914964;29;21117;-76
2022/08/28 07:28:47;;;;;;;4.40;1.90;;;23.20;97.60;;;;;;4932437;29;20580;-74
2022/08/28 07:31:17;;;;;;;6.63;1.93;;;23.30;97.40;;;;;;4934267;29;20576;-74
2022/08/28 07:33:43;;;;;;;4.67;2.07;;;23.50;97.40;;;;;;4925285;29;20592;-74
2022/08/28 07:36:13;;;;;;;6.13;1.60;;;23.60;97.30;;;;;;4934946;29;20581;-74
2022/08/28 07:38:39;;;;;;;4.23;1.80;;;23.70;97.10;;;;;;4920100;29;20648;-75
2022/08/28 07:41:17;;;;;;;5.17;2.00;;;23.80;96.90;;;;;;4912883;29;20597;-73
2022/08/28 07:46:28;;;;;;;3.70;1.50;;;24.00;96.50;;;;;;4927945;29;21190;-73
2022/08/28 07:48:56;;;;;;;8.63;2.10;;;24.20;96.50;;;;;;4933931;29;20569;-73
2022/08/28 07:51:22;;;;;;;5.23;1.90;;;24.40;96.40;;;;;;4919663;29;20577;-73
2022/08/28 07:53:49;;;;;;;7.63;2.33;;;24.60;96.10;;;;;;4941138;29;20576;-73
2022/08/28 07:56:15;;;;;;;4.17;1.73;;;24.80;96.00;;;;;;4936330;29;20676;-73
2022/08/28 07:58:41;;;;;;;3.23;1.57;;;25.00;95.70;;;;;;4934520;29;20655;-73
2022/08/28 08:01:06;;;;;;;5.80;1.97;;;25.10;95.10;;;;;;4933801;29;20569;-73
2022/08/28 08:03:33;;;;;;;5.23;1.87;;;25.20;94.80;;;;;;4934583;29;20205;-73
2022/08/28 08:06:02;;;;;;;4.00;1.40;;;25.30;94.40;;;;;;4917196;29;20184;-73
2022/08/28 08:08:29;;;;;;;4.23;2.23;;;25.30;94.00;;;;;;4934495;29;20604;-73
2022/08/28 08:11:04;;;;;;;12.23;1.70;;;25.40;93.80;;;;;;4917050;29;20580;-74
2022/08/28 08:13:31;;;;;;;6.00;1.73;;;25.50;93.60;;;;;;4904511;29;20584;-80
2022/08/28 08:16:13;;;;;;;7.80;2.77;;;25.70;93.90;;;;;;4904467;29;21250;-81
2022/08/28 08:18:40;;;;;;;5.73;1.50;;;26.00;93.80;;;;;;4937383;29;20572;-80
2022/08/28 08:21:08;;;;;;;3.63;1.80;;;26.30;93.50;;;;;;4919800;29;21134;-80
2022/08/28 08:23:36;;;;;;;5.80;1.63;;;26.60;93.00;;;;;;4937966;29;20989;-80
2022/08/28 08:26:05;;;;;;;4.10;1.57;;;26.90;92.50;;;;;;4936260;29;20581;-80
2022/08/28 08:28:33;;;;;;;6.00;1.50;;;27.10;91.90;;;;;;4937829;29;20580;-80
2022/08/28 08:31:03;;;;;;;7.47;2.13;;;27.20;91.20;;;;;;4938850;29;20587;-80
2022/08/28 08:33:29;;;;;;;4.10;1.20;;;27.30;90.50;;;;;;4965650;23;20629;-77
2022/08/28 08:35:55;;;;;;;5.20;2.10;;;27.40;90.00;;;;;;4944451;29;20627;-78
2022/08/28 08:38:21;;;;;;;3.60;1.40;;;27.40;90.00;;;;;;4910663;29;20575;-80
2022/08/28 08:40:47;;;;;;;3.60;1.40;;;27.40;88.20;;;;;;4909382;29;20246;-80
2022/08/28 08:43:16;;;;;;;3.90;1.30;;;27.40;87.20;;;;;;4908265;29;20215;-79
2022/08/28 08:45:44;;;;;;;3.77;1.40;;;27.40;86.70;;;;;;4908401;29;20655;-79
2022/08/28 08:48:28;;;;;;;4.40;1.63;;;27.50;86.30;;;;;;4923816;29;20575;-79
2022/08/28 08:50:58;;;;;;;5.77;1.40;;;27.70;86.50;;;;;;4955708;29;20575;-80
2022/08/28 08:53:27;;;;;;;6.80;1.73;;;28.00;86.70;;;;;;4939806;29;20953;-80
2022/08/28 08:55:55;;;;;;;4.70;2.53;;;28.30;86.10;;;;;;4923954;29;20605;-80
2022/08/28 08:58:32;;;;;;;6.60;2.03;;;28.70;84.60;;;;;;4955607;28;20623;-80
2022/08/28 09:01:13;;;;;;;4.60;1.87;;;29.00;84.50;;;;;;4956638;28;20575;-79
2022/08/28 09:04:18;;;;;;;5.27;1.23;;;29.20;80.50;;;;;;4924361;29;20638;-79
2022/08/28 09:06:52;;;;;;;3.07;1.60;;;29.40;71.10;;;;;;4940101;29;20610;-80
2022/08/28 09:09:24;;;;;;;5.17;1.97;;;29.60;77.30;;;;;;4939434;29;20579;-80
2022/08/28 09:11:57;;;;;;;6.07;1.50;;;29.70;76.60;;;;;;4939492;29;20576;-80
2022/08/28 09:14:35;;;;;;;5.43;1.97;;;29.80;75.90;;;;;;4939490;29;21172;-80
2022/08/28 09:17:02;;;;;;;5.20;1.30;;;29.80;73.50;;;;;;4923631;29;20576;-80
2022/08/28 09:19:28;;;;;;;5.90;1.43;;;29.80;71.40;;;;;;4939176;29;20587;-80
2022/08/28 09:21:54;;;;;;;3.80;1.33;;;29.70;71.70;;;;;;4956440;28;20933;-79
2022/08/28 09:24:27;;;;;;;4.53;1.53;;;29.90;72.50;;;;;;4939081;29;20215;-80
2022/08/28 09:27:05;;;;;;;4.07;1.40;;;30.40;72.50;;;;;;4923201;29;20581;-80
2022/08/28 09:29:37;;;;;;;8.90;2.20;;;31.10;71.00;;;;;;4907295;29;20584;-79
2022/08/28 09:32:32;;;;;;;4.47;1.60;;;32.00;69.90;;;;;;4906729;29;21001;-80
2022/08/28 09:35:05;;;;;;;6.70;1.20;;;32.60;65.60;;;;;;4930792;29;20627;-80
2022/08/28 09:37:31;;;;;;;5.47;1.77;;;33.20;64.60;;;;;;4939091;29;20937;-79
2022/08/28 09:40:19;;;;;;;3.43;1.10;;;33.70;62.60;;;;;;4942636;29;20587;-80
2022/08/28 09:43:28;;;;;;;2.73;1.30;;;34.10;59.60;;;;;;4966219;28;20620;-80
2022/08/28 09:46:22;;;;;;;5.43;1.60;;;34.20;57.80;;;;;;4928817;29;20698;-81
2022/08/28 09:48:52;;;;;;;5.20;1.50;;;34.10;52.60;;;;;;4960272;28;20572;-79
2022/08/28 09:51:21;;;;;;;4.67;1.73;;;34.10;53.40;;;;;;4942501;29;20571;-81
2022/08/28 09:53:49;;;;;;;3.50;1.63;;;34.20;52.10;;;;;;4960512;28;20744;-80
2022/08/28 09:56:17;;;;;;;3.10;1.30;;;34.40;53.20;;;;;;4959762;28;20612;-79
2022/08/28 09:58:48;;;;;;;6.00;1.60;;;34.60;53.60;;;;;;4960231;28;20564;-80
2022/08/28 10:01:17;;;;;;;3.50;1.60;;;34.80;50.30;;;;;;4944118;29;20567;-79
2022/08/28 10:03:50;;;;;;;4.37;1.80;;;34.70;49.60;;;;;;4959887;28;20631;-79
2022/08/28 10:06:30;;;;;;;3.20;1.37;;;34.50;49.50;;;;;;4926318;29;20586;-80
2022/08/28 10:09:14;;;;;;;6.30;1.63;;;34.40;47.50;;;;;;4959432;28;20674;-80
2022/08/28 10:12:04;;;;;;;3.70;1.60;;;34.50;48.20;;;;;;4956750;28;20969;-80
2022/08/28 10:14:39;;;;;;;3.47;1.57;;;34.40;45.50;;;;;;4955292;28;21066;-80
2022/08/28 10:17:19;;;;;;;5.20;2.17;;;34.20;46.90;;;;;;4956921;28;20571;-80
2022/08/28 10:19:59;;;;;;;4.80;1.80;;;33.90;46.00;;;;;;4939734;29;20623;-80
2022/08/28 10:22:47;;;;;;;4.30;1.70;;;33.50;46.10;;;;;;4954633;28;20600;-80
2022/08/28 10:25:19;;;;;;;3.43;1.03;;;33.30;46.60;;;;;;4956391;28;20666;-80
2022/08/28 10:28:14;;;;;;;3.63;1.17;;;33.10;46.70;;;;;;4956360;28;20665;-79
2022/08/28 10:31:03;;;;;;;3.00;1.17;;;32.80;45.40;;;;;;4954274;28;20691;-80
2022/08/28 10:33:49;;;;;;;4.93;1.80;;;32.60;44.90;;;;;;4955775;28;20639;-79
2022/08/28 10:36:20;;;;;;;3.93;1.50;;;32.30;46.50;;;;;;4907035;29;20587;-79
2022/08/28 10:39:03;;;;;;;3.83;1.90;;;32.20;47.60;;;;;;4938448;29;20937;-80
2022/08/28 10:41:46;;;;;;;3.90;1.40;;;32.20;46.80;;;;;;4955108;28;20580;-79
2022/08/28 10:44:18;;;;;;;5.23;1.80;;;32.00;46.20;;;;;;4933528;29;20701;-79
2022/08/28 10:46:50;;;;;;;8.03;1.83;;;31.80;46.30;;;;;;4956228;29;20579;-80
2022/08/28 10:49:19;;;;;;;5.03;1.47;;;31.70;46.90;;;;;;4973860;29;20561;-80
2022/08/28 10:51:49;;;;;;;6.07;1.43;;;31.70;47.40;;;;;;4977793;28;20589;-80
2022/08/28 10:54:14;;;;;;;4.10;1.30;;;31.70;47.90;;;;;;4978042;28;20600;-77
2022/08/28 10:56:51;;;;;;;5.87;1.93;;;31.90;47.90;;;;;;4973436;28;20585;-77
2022/08/28 10:59:17;;;;;;;10.17;1.50;;;31.90;47.30;;;;;;4948858;29;20252;-78
2022/08/28 11:01:46;;;;;;;3.50;1.20;;;32.00;47.40;;;;;;4939370;29;20603;-78
2022/08/28 11:04:20;;;;;;;3.37;1.20;;;32.10;47.40;;;;;;4958254;28;20208;-78
2022/08/28 11:07:06;;;;;;;3.37;1.10;;;32.10;46.70;;;;;;4957306;28;20604;-78
2022/08/28 11:09:37;;;;;;;3.05;1.40;;;32.10;46.50;;;;;;4923084;29;20787;-80
2022/08/28 11:12:06;;;;;;;4.37;1.20;;;31.90;44.10;;;;;;4957061;28;20228;-78
2022/08/28 11:14:43;;;;;;;4.83;1.20;;;32.00;45.40;;;;;;4955190;28;20610;-77
2022/08/28 11:17:29;;;;;;;3.23;1.20;;;32.10;46.00;;;;;;4957108;28;20569;-77
2022/08/28 11:20:16;;;;;;;4.70;1.27;;;32.20;45.40;;;;;;4955463;28;20597;-77
2022/08/28 11:23:11;;;;;;;3.00;1.23;;;32.20;43.70;;;;;;4955397;28;20630;-77
2022/08/28 11:25:40;;;;;;;4.53;1.10;;;32.20;45.10;;;;;;4958216;28;20611;-77
2022/08/28 11:28:22;;;;;;;2.70;1.20;;;32.30;44.80;;;;;;4955293;28;20572;-77
2022/08/28 11:30:57;;;;;;;3.70;1.27;;;32.20;44.50;;;;;;4960871;28;20579;-80
2022/08/28 11:33:51;;;;;;;3.00;1.10;;;32.20;43.90;;;;;;4946292;29;20588;-80
2022/08/28 11:36:22;;;;;;;2.37;1.00;;;32.30;44.20;;;;;;4930390;29;20572;-80
2022/08/28 11:39:01;;;;;;;2.60;1.10;;;32.40;44.50;;;;;;4961920;28;20561;-80
2022/08/28 11:41:38;;;;;;;3.33;1.40;;;32.40;44.30;;;;;;4942212;28;20609;-81
2022/08/28 11:44:10;;;;;;;3.83;1.30;;;32.50;44.30;;;;;;4957732;28;20656;-80
2022/08/28 11:46:36;;;;;;;4.00;0.90;;;32.60;43.80;;;;;;4960867;28;20590;-80
2022/08/28 11:49:23;;;;;;;2.70;0.90;;;32.60;43.40;;;;;;4943365;29;20594;-80
2022/08/28 11:52:13;;;;;;;4.23;1.37;;;32.50;44.00;;;;;;4943735;28;20641;-80
2022/08/28 11:54:49;;;;;;;2.63;1.20;;;32.70;43.60;;;;;;4940838;29;20713;-77
2022/08/28 11:57:38;;;;;;;5.50;1.10;;;32.80;44.10;;;;;;4954642;28;20581;-77
2022/08/28 12:00:07;;;;;;;4.43;1.43;;;32.90;44.00;;;;;;4922577;28;20612;-80
2022/08/28 12:02:39;;;;;;;3.17;1.33;;;32.90;43.40;;;;;;4957360;28;21026;-78
2022/08/28 12:05:09;;;;;;;3.30;1.20;;;32.80;42.60;;;;;;4965225;28;20623;-77
2022/08/28 12:07:49;;;;;;;3.00;1.10;;;32.80;43.10;;;;;;4967852;28;20989;-77
2022/08/28 12:10:21;;;;;;;4.03;1.53;;;32.60;41.90;;;;;;4952757;28;20993;-77
2022/08/28 12:12:48;;;;;;;6.50;1.90;;;32.60;42.80;;;;;;4954779;28;20584;-77
2022/08/28 12:15:26;;;;;;;3.83;1.13;;;32.50;43.10;;;;;;4955754;28;20635;-77
2022/08/28 12:17:53;;;;;;;6.43;1.40;;;32.40;42.70;;;;;;4956811;28;21157;-77
2022/08/28 12:20:19;;;;;;;5.13;1.37;;;32.40;43.30;;;;;;4924862;28;20608;-77
2022/08/28 12:22:51;;;;;;;2.07;1.03;;;32.40;42.90;;;;;;4957500;28;20623;-77
2022/08/28 12:25:42;;;;;;;3.63;1.10;;;32.30;42.60;;;;;;4959259;28;20222;-77
2022/08/28 12:28:30;;;;;;;5.87;1.10;;;32.20;42.60;;;;;;4963820;28;20580;-77
2022/08/28 12:31:17;;;;;;;2.00;0.80;;;32.00;42.10;;;;;;4956290;28;21230;-77
2022/08/28 12:34:01;;;;;;;5.17;1.10;;;31.90;42.00;;;;;;4957263;28;20581;-77
2022/08/28 12:36:27;;;;;;;5.00;1.50;;;31.70;42.00;;;;;;4941287;29;20575;-77
2022/08/28 12:38:57;;;;;;;2.10;1.00;;;31.60;41.90;;;;;;4958705;28;20568;-77
2022/08/28 12:41:23;;;;;;;4.73;1.00;;;31.40;41.80;;;;;;4963148;28;20565;-77
2022/08/28 12:43:54;;;;;;;3.73;1.30;;;31.30;41.90;;;;;;4944091;29;20634;-78
2022/08/28 12:46:31;;;;;;;8.23;1.60;;;31.20;41.80;;;;;;4947779;29;21122;-77
2022/08/28 12:48:59;;;;;;;2.47;0.93;;;31.10;42.10;;;;;;4964139;28;20559;-78
2022/08/28 12:51:32;;;;;;;6.97;1.60;;;31.00;42.10;;;;;;4940804;28;20720;-80
2022/08/28 12:54:01;;;;;;;4.03;1.40;;;30.90;42.20;;;;;;4945252;28;20203;-81
2022/08/28 12:56:32;;;;;;;2.33;0.90;;;30.80;42.10;;;;;;4961430;28;20692;-78
2022/08/28 12:59:21;;;;;;;5.07;0.90;;;30.70;42.20;;;;;;4958885;28;20575;-80
2022/08/28 13:01:47;;;;;;;5.20;1.10;;;30.60;42.30;;;;;;4959785;28;20591;-80
2022/08/28 13:04:36;;;;;;;4.03;1.03;;;30.50;42.00;;;;;;4958828;29;20669;-81
2022/08/28 13:07:15;;;;;;;2.80;0.90;;;30.30;42.10;;;;;;4960812;28;20233;-81
2022/08/28 13:09:48;;;;;;;2.70;1.10;;;30.00;41.90;;;;;;4959407;28;20579;-81